Time;durP1;ratioP1;P1;durP2;ratioP2;P2;SDS_P1;SDS_P2;PMS_P1;PMS_P2;Temp;Humidity;BMP_temperature;BMP_pressure;BME280_temperature;BME280_humidity;BME280_pressure;Samples;Min_cycle;Max_cycle;Signal;HPM_P1;HPM_P2
2023/03/08 00:00:45;;;;;;;4.05;3.28;;;1.40;1.00;;;;;;5071020;28;20259;-80
2023/03/08 00:03:14;;;;;;;4.22;2.63;;;1.40;1.00;;;;;;5075168;28;20243;-83
2023/03/08 00:05:41;;;;;;;7.97;2.22;;;1.40;1.00;;;;;;5070868;28;20229;-82
2023/03/08 00:08:08;;;;;;;3.00;2.00;;;1.40;1.00;;;;;;5071139;28;20294;-82
2023/03/08 00:10:35;;;;;;;2.50;2.30;;;1.30;1.00;;;;;;5070601;28;20208;-82
2023/03/08 00:13:01;;;;;;;4.78;2.75;;;1.30;1.00;;;;;;5060318;28;20222;-82
2023/03/08 00:15:30;;;;;;;4.88;2.65;;;1.30;1.00;;;;;;5059277;28;20212;-82
2023/03/08 00:17:56;;;;;;;5.05;2.80;;;0.90;1.00;;;;;;5059750;28;20229;-81
2023/03/08 00:20:23;;;;;;;2.90;2.28;;;1.20;1.00;;;;;;5065141;28;20199;-81
2023/03/08 00:22:50;;;;;;;5.07;2.90;;;1.30;1.00;;;;;;5075156;28;20252;-80
2023/03/08 00:25:17;;;;;;;7.88;3.38;;;1.20;1.00;;;;;;5072282;28;20298;-81
2023/03/08 00:27:44;;;;;;;4.22;2.70;;;1.10;1.00;;;;;;5065477;28;20253;-82
2023/03/08 00:30:12;;;;;;;4.03;2.80;;;1.10;1.00;;;;;;5060916;28;20239;-82
2023/03/08 00:32:41;;;;;;;3.78;2.75;;;1.10;1.00;;;;;;5059536;28;20741;-82
2023/03/08 00:35:09;;;;;;;7.55;3.35;;;1.00;1.00;;;;;;5060221;28;20275;-82
2023/03/08 00:37:36;;;;;;;5.65;2.60;;;1.10;1.00;;;;;;5061868;28;20290;-81
2023/03/08 00:40:04;;;;;;;6.13;2.72;;;1.50;54.70;;;;;;5060122;28;20230;-80
2023/03/08 00:42:31;;;;;;;3.88;2.90;;;0.80;40.80;;;;;;5058717;28;20254;-81
2023/03/08 00:44:59;;;;;;;4.25;2.63;;;1.00;1.00;;;;;;5058357;28;20207;-82
2023/03/08 00:47:26;;;;;;;8.82;4.28;;;;;;;;;;5059071;28;20277;-81
2023/03/08 00:49:55;;;;;;;6.03;3.33;;;0.90;1.00;;;;;;5060162;28;20267;-81
2023/03/08 00:52:21;;;;;;;4.15;3.30;;;1.00;70.20;;;;;;5060017;28;20200;-81
2023/03/08 00:54:48;;;;;;;6.72;3.20;;;0.90;1.00;;;;;;5059358;28;20211;-82
2023/03/08 00:57:16;;;;;;;3.40;3.10;;;0.90;1.00;;;;;;5057637;28;20225;-81
2023/03/08 00:59:42;;;;;;;5.28;3.72;;;0.90;1.00;;;;;;5057845;28;20203;-81
2023/03/08 01:02:09;;;;;;;6.18;3.92;;;0.70;94.60;;;;;;5057334;28;20257;-82
2023/03/08 01:04:36;;;;;;;3.92;3.35;;;0.90;1.00;;;;;;5057529;28;20225;-81
2023/03/08 01:07:04;;;;;;;6.03;4.05;;;1.10;99.90;;;;;;5057288;28;20321;-81
2023/03/08 01:09:31;;;;;;;9.98;3.58;;;0.90;42.80;;;;;;5062497;28;20564;-81
2023/03/08 01:11:58;;;;;;;4.47;3.53;;;0.90;41.60;;;;;;5059142;28;20294;-81
2023/03/08 01:14:26;;;;;;;7.10;3.50;;;0.70;99.90;;;;;;5056642;28;20219;-80
2023/03/08 01:16:53;;;;;;;4.10;3.22;;;0.80;54.70;;;;;;5056934;28;20231;-81
2023/03/08 01:19:20;;;;;;;3.60;3.30;;;0.80;75.10;;;;;;5056870;28;20692;-80
2023/03/08 01:21:46;;;;;;;7.03;4.03;;;0.80;99.30;;;;;;5058679;28;20207;-82
2023/03/08 01:24:14;;;;;;;5.13;3.80;;;0.60;99.90;;;;;;5063304;28;20223;-82
2023/03/08 01:26:41;;;;;;;5.47;3.95;;;0.70;99.90;;;;;;5071134;28;20234;-81
2023/03/08 01:29:08;;;;;;;7.53;3.88;;;0.70;99.90;;;;;;5059609;28;20290;-82
2023/03/08 01:31:35;;;;;;;4.85;4.35;;;1.40;99.90;;;;;;5057939;28;20305;-81
2023/03/08 01:34:02;;;;;;;5.10;4.28;;;0.60;99.90;;;;;;5064522;28;20252;-80
2023/03/08 01:36:29;;;;;;;10.68;5.38;;;0.60;99.90;;;;;;5064015;28;20741;-82
2023/03/08 01:38:56;;;;;;;5.90;4.75;;;0.60;99.90;;;;;;5061304;28;20237;-81
2023/03/08 01:41:27;;;;;;;9.05;5.25;;;0.70;99.90;;;;;;5060235;28;20208;-81
2023/03/08 01:43:54;;;;;;;7.82;5.72;;;0.80;99.90;;;;;;5056643;28;20409;-82
2023/03/08 01:46:24;;;;;;;6.85;4.75;;;0.70;99.90;;;;;;5057396;28;20295;-82
2023/03/08 01:48:55;;;;;;;7.40;5.85;;;0.70;99.90;;;;;;5057861;28;20259;-81
2023/03/08 01:51:28;;;;;;;5.78;5.25;;;0.70;99.90;;;;;;5058299;28;20274;-81
2023/03/08 01:53:57;;;;;;;9.30;5.75;;;0.60;99.90;;;;;;5061496;28;20219;-79
2023/03/08 01:56:26;;;;;;;12.82;6.32;;;0.60;99.90;;;;;;5065718;28;20270;-80
2023/03/08 01:58:55;;;;;;;7.15;5.45;;;0.60;99.90;;;;;;5062671;28;20207;-80
2023/03/08 02:01:22;;;;;;;8.57;5.63;;;0.60;99.90;;;;;;5065867;28;20290;-80
2023/03/08 02:03:49;;;;;;;10.65;5.25;;;0.50;99.90;;;;;;5063536;28;20816;-81
2023/03/08 02:06:17;;;;;;;8.30;5.28;;;0.60;99.90;;;;;;5058022;28;20210;-80
2023/03/08 02:08:45;;;;;;;10.05;5.57;;;0.40;99.90;;;;;;5056926;28;20214;-80
2023/03/08 02:11:13;;;;;;;8.07;5.65;;;0.50;99.90;;;;;;5057559;28;20204;-82
2023/03/08 02:13:42;;;;;;;7.20;5.53;;;1.00;99.90;;;;;;5061396;28;20219;-79
2023/03/08 02:16:12;;;;;;;12.00;7.43;;;0.40;99.90;;;;;;5057906;28;20203;-82
2023/03/08 02:18:50;;;;;;;9.73;6.15;;;0.50;99.90;;;;;;5056662;28;20200;-81
2023/03/08 02:21:17;;;;;;;9.35;6.45;;;0.50;99.90;;;;;;5056999;28;20278;-82
2023/03/08 02:23:45;;;;;;;9.40;7.07;;;0.50;99.90;;;;;;5056298;28;20432;-81
2023/03/08 02:26:12;;;;;;;13.77;6.75;;;0.50;99.90;;;;;;5056048;28;20635;-81
2023/03/08 02:28:39;;;;;;;9.60;7.03;;;0.40;99.90;;;;;;5058248;28;20217;-80
2023/03/08 02:31:07;;;;;;;10.95;8.43;;;0.30;99.90;;;;;;5064834;28;20202;-78
2023/03/08 02:33:34;;;;;;;13.00;7.25;;;0.40;99.90;;;;;;5077156;22;20321;-79
2023/03/08 02:36:01;;;;;;;11.85;7.40;;;0.40;99.90;;;;;;5067273;28;20203;-79
2023/03/08 02:38:28;;;;;;;11.10;7.55;;;0.40;99.90;;;;;;5067830;28;20203;-79
2023/03/08 02:40:56;;;;;;;15.02;7.10;;;0.40;99.90;;;;;;5070829;28;20218;-79
2023/03/08 02:43:23;;;;;;;12.23;7.65;;;0.40;99.90;;;;;;5071991;28;20266;-79
2023/03/08 02:45:50;;;;;;;15.52;8.27;;;0.40;99.90;;;;;;5067986;28;20235;-80
2023/03/08 02:48:17;;;;;;;13.40;8.25;;;0.60;99.90;;;;;;5066643;28;20245;-79
2023/03/08 02:50:44;;;;;;;12.60;7.68;;;0.30;99.90;;;;;;5062402;28;20235;-79
2023/03/08 02:53:11;;;;;;;13.55;8.55;;;0.30;99.90;;;;;;5062074;28;20706;-79
2023/03/08 02:55:38;;;;;;;14.40;7.32;;;0.30;99.90;;;;;;5060549;28;20686;-79
2023/03/08 02:58:08;;;;;;;13.20;8.55;;;0.40;99.90;;;;;;5056596;28;20209;-79
2023/03/08 03:00:35;;;;;;;13.50;7.78;;;0.30;99.90;;;;;;5056938;28;20579;-79
2023/03/08 03:03:02;;;;;;;13.82;8.80;;;0.40;99.90;;;;;;5054564;28;20234;-79
2023/03/08 03:05:30;;;;;;;17.10;8.50;;;0.30;99.90;;;;;;5057284;28;20307;-80
2023/03/08 03:07:57;;;;;;;13.88;7.40;;;0.40;99.90;;;;;;5055699;28;20207;-80
2023/03/08 03:10:24;;;;;;;13.80;8.98;;;0.60;99.90;;;;;;5055724;28;20211;-80
2023/03/08 03:12:51;;;;;;;15.02;8.27;;;0.40;99.90;;;;;;5055617;28;20572;-81
2023/03/08 03:15:19;;;;;;;15.85;8.45;;;0.30;99.90;;;;;;5058872;28;20195;-80
2023/03/08 03:17:46;;;;;;;13.13;9.05;;;0.30;99.90;;;;;;5059782;28;20202;-80
2023/03/08 03:20:14;;;;;;;14.57;8.70;;;0.30;99.90;;;;;;5058971;28;20302;-80
2023/03/08 03:22:41;;;;;;;12.93;8.70;;;0.50;99.90;;;;;;5059001;28;20680;-80
2023/03/08 03:25:09;;;;;;;14.88;9.80;;;0.40;99.90;;;;;;5058592;28;20227;-80
2023/03/08 03:27:36;;;;;;;13.15;9.27;;;0.40;99.90;;;;;;5058830;28;20235;-80
2023/03/08 03:30:03;;;;;;;11.82;8.80;;;0.50;99.90;;;;;;5059827;28;20575;-80
2023/03/08 03:32:32;;;;;;;15.55;10.35;;;0.30;99.90;;;;;;5058651;28;20293;-79
2023/03/08 03:34:58;;;;;;;14.48;9.30;;;0.40;99.90;;;;;;5058253;28;20211;-79
2023/03/08 03:37:26;;;;;;;11.23;8.07;;;;;;;;;;5057862;28;20669;-79
2023/03/08 03:39:52;;;;;;;16.52;8.90;;;0.50;99.90;;;;;;5058264;28;20207;-80
2023/03/08 03:42:19;;;;;;;10.48;8.48;;;0.50;99.90;;;;;;5059257;28;20227;-82
2023/03/08 03:44:46;;;;;;;11.07;8.98;;;0.50;99.90;;;;;;5059376;28;20230;-82
2023/03/08 03:47:13;;;;;;;11.68;8.43;;;0.50;99.90;;;;;;5058781;28;20211;-79
2023/03/08 03:49:41;;;;;;;13.93;8.90;;;0.50;99.90;;;;;;5058487;28;20238;-80
2023/03/08 03:52:08;;;;;;;19.45;9.98;;;0.20;99.90;;;;;;5062087;28;20200;-79
2023/03/08 03:54:35;;;;;;;17.25;9.93;;;0.50;99.90;;;;;;5063948;28;20479;-79
2023/03/08 03:57:02;;;;;;;15.00;9.73;;;0.60;99.90;;;;;;5066618;28;20204;-79
2023/03/08 03:59:29;;;;;;;13.63;9.48;;;0.60;99.90;;;;;;5070887;28;20233;-79
2023/03/08 04:01:56;;;;;;;13.80;8.25;;;0.50;99.90;;;;;;5076197;28;20206;-79
2023/03/08 04:04:23;;;;;;;12.70;8.55;;;0.60;99.90;;;;;;5068126;28;20661;-79
2023/03/08 04:06:51;;;;;;;15.35;7.90;;;0.60;99.90;;;;;;5060773;28;20263;-79
2023/03/08 04:09:18;;;;;;;14.73;8.07;;;0.50;99.90;;;;;;5060457;28;20676;-79
2023/03/08 04:11:45;;;;;;;14.20;9.43;;;0.60;99.90;;;;;;5059825;28;20204;-80
2023/03/08 04:14:12;;;;;;;17.90;9.75;;;0.60;99.90;;;;;;5059208;28;20223;-80
2023/03/08 04:16:40;;;;;;;12.75;7.57;;;0.60;99.90;;;;;;5060618;28;20225;-80
2023/03/08 04:19:08;;;;;;;10.23;7.80;;;0.60;99.90;;;;;;5064014;28;20231;-80
2023/03/08 04:21:35;;;;;;;14.45;8.95;;;0.40;99.90;;;;;;5059515;28;20443;-80
2023/03/08 04:24:04;;;;;;;11.82;7.68;;;0.60;99.90;;;;;;5057700;28;20233;-79
2023/03/08 04:26:31;;;;;;;14.80;7.82;;;0.60;99.90;;;;;;5062404;28;20663;-79
2023/03/08 04:28:58;;;;;;;13.18;8.40;;;0.60;99.90;;;;;;5065171;28;20741;-79
2023/03/08 04:31:27;;;;;;;14.38;8.77;;;0.50;99.90;;;;;;5073773;28;20195;-79
2023/03/08 04:33:54;;;;;;;13.70;8.25;;;0.50;99.90;;;;;;5079248;28;20226;-79
2023/03/08 04:36:21;;;;;;;11.88;8.00;;;0.40;99.90;;;;;;5064320;28;20287;-79
2023/03/08 04:38:49;;;;;;;13.55;7.95;;;0.50;99.90;;;;;;5058647;28;20678;-79
2023/03/08 04:41:17;;;;;;;9.25;7.80;;;0.40;99.90;;;;;;5057315;28;20294;-80
2023/03/08 04:43:46;;;;;;;9.50;7.32;;;0.60;99.90;;;;;;5058943;28;20609;-80
2023/03/08 04:46:13;;;;;;;10.52;7.75;;;0.60;99.90;;;;;;5056776;28;20723;-79
2023/03/08 04:48:41;;;;;;;10.25;7.68;;;0.50;99.90;;;;;;5058343;28;20209;-78
2023/03/08 04:51:10;;;;;;;9.85;7.40;;;0.40;99.90;;;;;;5056299;28;20203;-80
2023/03/08 04:53:38;;;;;;;17.65;8.57;;;0.40;99.90;;;;;;5055880;28;20596;-80
2023/03/08 04:56:06;;;;;;;14.05;8.32;;;0.00;99.90;;;;;;5056729;28;20693;-79
2023/03/08 04:58:35;;;;;;;10.43;7.95;;;0.30;99.90;;;;;;5057131;28;20210;-80
2023/03/08 05:01:09;;;;;;;9.77;8.13;;;0.20;99.90;;;;;;5060776;28;20227;-79
2023/03/08 05:03:36;;;;;;;12.25;9.45;;;0.20;99.90;;;;;;5067817;28;20642;-79
2023/03/08 05:06:03;;;;;;;11.95;7.40;;;0.10;99.90;;;;;;5071002;28;20594;-79
2023/03/08 05:08:29;;;;;;;19.58;9.50;;;0.10;99.90;;;;;;5067321;28;20266;-79
2023/03/08 05:10:58;;;;;;;23.35;8.77;;;0.10;99.90;;;;;;5066815;28;20239;-79
2023/03/08 05:13:26;;;;;;;10.23;7.53;;;0.20;99.90;;;;;;5061187;28;20227;-79
2023/03/08 05:15:54;;;;;;;12.85;8.35;;;0.20;99.90;;;;;;5067897;28;20204;-80
2023/03/08 05:18:21;;;;;;;12.00;8.13;;;0.30;99.90;;;;;;5068862;28;20267;-80
2023/03/08 05:20:55;;;;;;;10.00;8.15;;;0.20;99.90;;;;;;5062759;28;20225;-80
2023/03/08 05:23:22;;;;;;;12.32;9.20;;;0.20;99.90;;;;;;5057679;28;20651;-80
2023/03/08 05:25:52;;;;;;;15.07;8.82;;;0.30;99.90;;;;;;5056884;28;20231;-81
2023/03/08 05:28:19;;;;;;;13.48;10.18;;;0.10;99.90;;;;;;5056865;28;20266;-80
2023/03/08 05:30:46;;;;;;;15.00;9.73;;;0.00;99.90;;;;;;5057194;28;20242;-81
2023/03/08 05:33:15;;;;;;;10.30;7.68;;;0.10;99.90;;;;;;5056664;28;20241;-79
2023/03/08 05:35:42;;;;;;;15.85;8.65;;;0.10;99.90;;;;;;5056078;28;20196;-79
2023/03/08 05:38:08;;;;;;;14.02;9.18;;;0.00;99.90;;;;;;5056406;28;20206;-80
2023/03/08 05:40:37;;;;;;;9.77;8.45;;;0.10;99.90;;;;;;5057745;28;20219;-79
2023/03/08 05:43:04;;;;;;;15.48;9.27;;;0.00;99.90;;;;;;5074936;28;20203;-80
2023/03/08 05:45:30;;;;;;;13.98;8.38;;;-0.10;99.90;;;;;;5075980;28;20249;-79
2023/03/08 05:47:57;;;;;;;24.30;9.70;;;-0.10;99.90;;;;;;5074611;28;20290;-79
2023/03/08 05:50:25;;;;;;;14.05;9.27;;;-0.10;99.90;;;;;;5075684;28;20231;-80
2023/03/08 05:52:52;;;;;;;14.30;9.85;;;0.30;99.90;;;;;;5073488;28;20210;-80
2023/03/08 05:55:19;;;;;;;13.82;9.70;;;-0.20;99.90;;;;;;5069386;28;20223;-80
2023/03/08 05:57:46;;;;;;;13.43;9.90;;;-0.20;99.90;;;;;;5068919;28;20229;-81
2023/03/08 06:00:14;;;;;;;14.85;9.10;;;-0.20;99.90;;;;;;5066064;28;20571;-81
2023/03/08 06:02:41;;;;;;;14.48;9.88;;;-0.30;99.90;;;;;;5058386;28;20214;-79
2023/03/08 06:05:09;;;;;;;16.92;10.13;;;-0.20;99.90;;;;;;5056934;28;20218;-80
2023/03/08 06:07:37;;;;;;;16.35;10.63;;;-0.20;99.90;;;;;;5056582;28;20297;-80
2023/03/08 06:10:04;;;;;;;13.75;9.73;;;-0.20;99.90;;;;;;5056743;28;20582;-80
2023/03/08 06:12:31;;;;;;;15.68;10.35;;;-0.20;99.90;;;;;;5056144;28;20294;-80
2023/03/08 06:14:58;;;;;;;15.50;9.70;;;-0.10;99.90;;;;;;5056625;28;20306;-80
2023/03/08 06:17:25;;;;;;;13.02;8.82;;;-0.10;99.90;;;;;;5056730;28;20203;-80
2023/03/08 06:19:52;;;;;;;14.85;9.85;;;0.00;99.90;;;;;;5055708;28;20249;-80
2023/03/08 06:22:19;;;;;;;13.70;9.65;;;-0.10;99.90;;;;;;5056250;28;20199;-80
2023/03/08 06:24:48;;;;;;;15.52;10.07;;;-0.10;99.90;;;;;;5056291;28;20227;-80
2023/03/08 06:27:16;;;;;;;12.95;9.30;;;-0.10;99.90;;;;;;5056063;28;20207;-80
2023/03/08 06:29:43;;;;;;;14.93;10.02;;;-0.10;99.90;;;;;;5056162;28;20199;-80
2023/03/08 06:32:10;;;;;;;20.77;10.43;;;0.00;99.90;;;;;;5056134;28;20203;-81
2023/03/08 06:34:37;;;;;;;15.90;10.73;;;0.10;99.90;;;;;;5056036;28;20280;-80
2023/03/08 06:37:03;;;;;;;14.43;9.50;;;0.10;99.90;;;;;;5056726;28;20261;-80
2023/03/08 06:39:31;;;;;;;11.77;9.40;;;0.20;99.90;;;;;;5056787;28;20262;-80
2023/03/08 06:42:01;;;;;;;13.93;10.55;;;0.20;99.90;;;;;;5056371;28;20207;-81
2023/03/08 06:44:28;;;;;;;17.10;9.95;;;0.10;99.90;;;;;;5055504;28;20226;-81
2023/03/08 06:46:55;;;;;;;14.10;9.70;;;0.20;99.90;;;;;;5056229;28;20204;-80
2023/03/08 06:49:22;;;;;;;14.93;10.10;;;0.20;99.90;;;;;;5057378;28;20313;-81
2023/03/08 06:51:49;;;;;;;17.23;10.48;;;0.20;99.90;;;;;;5059964;28;20203;-80
2023/03/08 06:54:17;;;;;;;16.63;8.80;;;0.30;99.90;;;;;;5060135;28;20254;-81
2023/03/08 06:56:44;;;;;;;15.07;10.43;;;0.40;99.90;;;;;;5059682;28;20286;-80
2023/03/08 06:59:13;;;;;;;15.05;9.85;;;0.40;99.90;;;;;;5059479;28;20641;-80
2023/03/08 07:01:40;;;;;;;16.65;10.13;;;0.30;99.90;;;;;;5062584;28;20207;-80
2023/03/08 07:04:07;;;;;;;16.15;9.32;;;0.40;99.90;;;;;;5063759;28;20292;-80
2023/03/08 07:06:34;;;;;;;11.18;8.40;;;0.50;99.90;;;;;;5066655;28;20229;-80
2023/03/08 07:09:01;;;;;;;17.73;9.82;;;0.50;99.90;;;;;;5064126;28;20203;-80
2023/03/08 07:11:29;;;;;;;11.95;8.38;;;0.60;99.90;;;;;;5064238;28;20263;-81
2023/03/08 07:13:57;;;;;;;15.80;9.75;;;0.60;99.90;;;;;;5061378;28;20254;-81
2023/03/08 07:16:25;;;;;;;14.05;8.93;;;0.70;88.90;;;;;;5061034;28;20253;-80
2023/03/08 07:18:53;;;;;;;11.23;8.68;;;0.70;65.40;;;;;;5060426;28;20204;-81
2023/03/08 07:21:20;;;;;;;13.82;8.63;;;0.70;42.80;;;;;;5060949;28;20207;-82
2023/03/08 07:23:47;;;;;;;11.95;8.63;;;0.80;94.30;;;;;;5060249;28;20596;-81
2023/03/08 07:26:22;;;;;;;11.25;9.88;;;0.60;85.50;;;;;;5062479;28;20227;-80
2023/03/08 07:28:50;;;;;;;12.95;9.07;;;0.70;99.90;;;;;;5070869;28;20218;-79
2023/03/08 07:31:17;;;;;;;14.07;10.30;;;0.80;1.00;;;;;;5079193;28;20205;-80
2023/03/08 07:33:45;;;;;;;13.40;9.23;;;0.80;1.00;;;;;;5079863;28;20265;-80
2023/03/08 07:36:12;;;;;;;15.82;10.65;;;1.00;24.20;;;;;;5065328;28;20203;-81
2023/03/08 07:38:39;;;;;;;12.68;9.15;;;1.10;1.00;;;;;;5059848;28;20204;-82
2023/03/08 07:41:06;;;;;;;15.05;9.35;;;1.20;1.00;;;;;;5066083;28;20197;-81
2023/03/08 07:43:33;;;;;;;12.80;8.88;;;1.20;1.00;;;;;;5080148;28;20227;-81
2023/03/08 07:46:02;;;;;;;11.57;8.57;;;1.20;1.00;;;;;;5078077;28;20230;-81
2023/03/08 07:48:29;;;;;;;13.80;8.60;;;1.20;1.00;;;;;;5073851;28;20199;-80
2023/03/08 07:51:01;;;;;;;13.98;8.73;;;1.10;1.00;;;;;;5074747;28;20207;-79
2023/03/08 07:53:28;;;;;;;13.15;9.60;;;1.10;1.00;;;;;;5074627;28;20229;-79
2023/03/08 07:55:58;;;;;;;14.15;10.13;;;1.20;1.00;;;;;;5073670;28;20223;-79
2023/03/08 07:58:24;;;;;;;15.00;9.20;;;1.30;1.00;;;;;;5067560;28;20208;-78
2023/03/08 08:00:51;;;;;;;10.60;8.98;;;1.40;1.00;;;;;;5068607;28;20634;-78
2023/03/08 08:03:19;;;;;;;14.70;9.77;;;1.50;1.00;;;;;;5060613;28;20259;-79
2023/03/08 08:05:46;;;;;;;13.55;9.00;;;1.50;1.00;;;;;;5058905;28;20228;-79
2023/03/08 08:08:14;;;;;;;18.42;10.73;;;1.50;1.00;;;;;;5058626;28;20205;-79
2023/03/08 08:10:41;;;;;;;11.80;8.52;;;1.50;1.00;;;;;;5058639;28;20208;-79
2023/03/08 08:13:07;;;;;;;13.60;10.25;;;1.70;1.00;;;;;;5059338;28;20220;-79
2023/03/08 08:15:34;;;;;;;15.23;10.10;;;1.60;1.00;;;;;;5060881;28;20682;-79
2023/03/08 08:18:01;;;;;;;15.48;10.13;;;1.70;1.00;;;;;;5060170;28;20203;-81
2023/03/08 08:20:28;;;;;;;14.88;9.90;;;1.70;1.00;;;;;;5062874;28;20276;-79
2023/03/08 08:22:55;;;;;;;15.20;9.10;;;2.10;1.00;;;;;;5060065;28;20253;-80
2023/03/08 08:25:23;;;;;;;13.38;9.38;;;1.80;1.00;;;;;;5061436;28;20220;-80
2023/03/08 08:27:51;;;;;;;21.17;11.13;;;1.90;1.00;;;;;;5060822;28;20199;-80
2023/03/08 08:30:18;;;;;;;11.30;9.20;;;1.90;1.00;;;;;;5060845;28;20208;-79
2023/03/08 08:32:45;;;;;;;14.13;10.15;;;2.20;1.00;;;;;;5059673;28;20204;-81
2023/03/08 08:35:14;;;;;;;12.93;9.20;;;;;;;;;;5075516;22;20235;-85
2023/03/08 08:37:41;;;;;;;10.50;8.85;;;2.20;1.00;;;;;;5062451;28;20199;-84
2023/03/08 08:40:11;;;;;;;17.08;10.45;;;2.20;99.90;;;;;;5063780;28;20207;-86
2023/03/08 08:42:39;;;;;;;12.77;10.15;;;2.20;99.90;;;;;;5063126;28;20211;-85
2023/03/08 08:45:07;;;;;;;14.23;9.95;;;2.20;99.90;;;;;;5064215;28;20314;-84
2023/03/08 08:47:34;;;;;;;10.82;8.75;;;2.20;99.90;;;;;;5061587;28;20342;-83
2023/03/08 08:50:01;;;;;;;12.30;9.05;;;2.30;99.90;;;;;;5067027;28;20217;-84
2023/03/08 08:52:28;;;;;;;10.70;8.70;;;2.20;99.90;;;;;;5061081;28;20729;-83
2023/03/08 08:55:00;;;;;;;11.55;8.20;;;2.30;99.90;;;;;;5061057;28;20226;-84
2023/03/08 08:57:27;;;;;;;10.27;8.45;;;2.20;99.90;;;;;;5063245;28;20226;-85
2023/03/08 08:59:55;;;;;;;10.55;7.90;;;2.40;99.90;;;;;;5060007;28;20203;-84
2023/03/08 09:02:23;;;;;;;11.40;7.82;;;2.40;1.00;;;;;;5059882;28;20203;-84
2023/03/08 09:04:50;;;;;;;10.23;6.95;;;2.60;1.00;;;;;;5059834;28;20297;-84
2023/03/08 09:07:17;;;;;;;11.02;5.95;;;2.60;1.00;;;;;;5060073;28;20206;-84
2023/03/08 09:09:46;;;;;;;11.32;7.75;;;2.60;1.00;;;;;;5059326;28;20749;-86
2023/03/08 09:12:13;;;;;;;6.72;5.78;;;2.90;1.00;;;;;;5058452;28;20204;-85
2023/03/08 09:14:40;;;;;;;7.43;6.22;;;2.80;96.90;;;;;;5063914;28;20235;-85
2023/03/08 09:17:11;;;;;;;8.93;5.47;;;2.80;99.90;;;;;;5061727;28;20229;-85
2023/03/08 09:19:38;;;;;;;8.10;6.15;;;3.20;99.90;;;;;;5063043;28;20195;-86
2023/03/08 09:22:05;;;;;;;8.90;5.90;;;3.00;99.90;;;;;;5072617;28;20666;-85
2023/03/08 09:24:33;;;;;;;5.50;4.80;;;3.20;1.00;;;;;;5073577;28;20223;-84
2023/03/08 09:27:01;;;;;;;6.15;5.55;;;2.90;1.00;;;;;;5073813;28;20230;-87
2023/03/08 09:29:28;;;;;;;6.50;5.90;;;;;;;;;;5070490;28;20208;-83
2023/03/08 09:31:58;;;;;;;9.48;5.38;;;3.10;1.00;;;;;;5066185;28;20678;-85
2023/03/08 09:34:27;;;;;;;6.22;5.32;;;3.30;1.00;;;;;;5064827;28;20323;-85
2023/03/08 09:36:54;;;;;;;8.18;5.63;;;5.10;1.00;;;;;;5063774;28;20196;-86
2023/03/08 09:39:21;;;;;;;8.82;5.40;;;;;;;;;;5062009;28;20240;-84
2023/03/08 09:41:54;;;;;;;5.70;4.35;;;3.30;99.90;;;;;;5059875;28;20742;-85
2023/03/08 09:45:01;;;;;;;7.40;5.85;;;6.10;99.90;;;;;;5059530;28;20286;-84
2023/03/08 09:47:47;;;;;;;7.97;5.78;;;3.50;1.00;;;;;;5056391;28;20220;-86
2023/03/08 09:50:30;;;;;;;10.50;5.20;;;3.30;99.90;;;;;;5057241;28;20247;-86
2023/03/08 09:53:05;;;;;;;6.45;5.38;;;3.40;99.90;;;;;;5057595;28;20280;-86
2023/03/08 09:55:42;;;;;;;6.88;5.15;;;3.00;1.00;;;;;;5059181;28;20187;-85
2023/03/08 09:58:20;;;;;;;8.77;4.85;;;3.20;99.90;;;;;;5059801;28;20199;-85
2023/03/08 10:00:48;;;;;;;5.95;5.35;;;3.30;99.90;;;;;;5059606;28;20188;-85
2023/03/08 10:03:38;;;;;;;5.88;4.30;;;3.10;99.90;;;;;;5066957;28;20195;-84
2023/03/08 10:06:13;;;;;;;7.75;5.10;;;3.10;99.90;;;;;;5056896;28;20220;-84
2023/03/08 10:08:49;;;;;;;4.82;4.38;;;3.10;99.90;;;;;;5066241;28;20213;-83
2023/03/08 10:11:21;;;;;;;6.95;5.72;;;3.20;99.90;;;;;;5074011;28;20191;-85
2023/03/08 10:13:50;;;;;;;5.63;4.55;;;3.70;99.90;;;;;;5060093;28;20274;-85
2023/03/08 10:16:21;;;;;;;6.72;5.15;;;3.70;99.90;;;;;;5059604;28;20211;-86
2023/03/08 10:18:52;;;;;;;5.88;4.70;;;4.00;99.90;;;;;;5058224;28;20270;-86
2023/03/08 10:21:23;;;;;;;5.88;4.30;;;4.50;99.90;;;;;;5059173;28;20213;-85
2023/03/08 10:23:58;;;;;;;6.22;5.40;;;4.30;93.50;;;;;;5060596;28;20726;-86
2023/03/08 10:26:26;;;;;;;5.25;4.60;;;4.50;99.90;;;;;;5068848;28;20639;-84
2023/03/08 10:28:53;;;;;;;6.38;5.70;;;4.50;1.00;;;;;;5064914;28;20681;-86
2023/03/08 10:31:23;;;;;;;8.13;7.00;;;4.50;1.00;;;;;;5065479;28;20207;-85
2023/03/08 10:33:56;;;;;;;7.47;5.95;;;5.00;99.90;;;;;;5062283;28;20259;-85
2023/03/08 10:36:26;;;;;;;7.03;4.80;;;4.70;14.00;;;;;;5064016;28;20705;-86
2023/03/08 10:38:59;;;;;;;7.03;4.97;;;4.30;1.00;;;;;;5063520;28;20199;-83
2023/03/08 10:41:27;;;;;;;6.45;5.50;;;4.30;1.00;;;;;;5064106;28;20295;-86
2023/03/08 10:43:55;;;;;;;5.40;4.90;;;4.20;22.00;;;;;;5067256;28;20257;-84
2023/03/08 10:46:24;;;;;;;8.32;5.00;;;4.00;1.00;;;;;;5068702;28;20239;-85
2023/03/08 10:48:52;;;;;;;5.80;4.40;;;4.10;1.00;;;;;;5068437;28;20212;-84
2023/03/08 10:51:22;;;;;;;5.40;4.45;;;3.60;99.90;;;;;;5069287;28;20642;-85
2023/03/08 10:53:58;;;;;;;6.20;4.65;;;4.00;1.00;;;;;;5066230;28;20314;-83
2023/03/08 10:56:27;;;;;;;6.00;4.75;;;4.10;1.00;;;;;;5069138;28;20650;-84
2023/03/08 10:58:56;;;;;;;5.20;4.10;;;4.30;1.00;;;;;;5067810;28;20226;-83
2023/03/08 11:01:26;;;;;;;7.28;4.28;;;4.50;1.00;;;;;;5068515;28;20214;-84
2023/03/08 11:04:01;;;;;;;7.63;4.30;;;4.40;1.00;;;;;;5066241;28;20224;-84
2023/03/08 11:06:28;;;;;;;5.55;4.97;;;4.50;1.00;;;;;;5068604;28;20278;-84
2023/03/08 11:08:59;;;;;;;7.07;4.78;;;4.60;1.00;;;;;;5066300;28;20735;-85
2023/03/08 11:11:26;;;;;;;12.13;6.20;;;4.70;1.00;;;;;;5073178;28;20216;-85
2023/03/08 11:13:54;;;;;;;12.77;10.13;;;4.50;99.90;;;;;;5073341;28;20321;-85
2023/03/08 11:16:48;;;;;;;6.53;5.50;;;4.70;99.90;;;;;;5066191;28;20208;-84
2023/03/08 11:19:33;;;;;;;8.35;5.07;;;4.60;1.00;;;;;;5079331;28;20215;-84
2023/03/08 11:22:10;;;;;;;3.83;3.53;;;4.60;99.90;;;;;;5078010;28;20249;-86
2023/03/08 11:24:53;;;;;;;6.28;4.25;;;4.60;1.00;;;;;;5072729;28;20233;-86
2023/03/08 11:27:40;;;;;;;6.25;5.05;;;4.50;1.00;;;;;;5072762;28;20729;-86
2023/03/08 11:30:20;;;;;;;3.85;3.65;;;4.50;99.90;;;;;;5078834;28;20188;-86
2023/03/08 11:33:01;;;;;;;4.65;3.75;;;4.50;1.00;;;;;;5078669;28;20211;-85
2023/03/08 11:35:33;;;;;;;4.65;4.25;;;4.60;1.00;;;;;;5065878;28;20246;-86
2023/03/08 11:38:05;;;;;;;4.65;4.20;;;4.50;1.00;;;;;;5065201;28;20195;-85
2023/03/08 11:40:47;;;;;;;5.32;4.13;;;4.40;1.00;;;;;;5065074;28;20646;-85
2023/03/08 11:43:25;;;;;;;5.50;3.90;;;5.60;99.90;;;;;;5065542;28;20189;-85
2023/03/08 11:46:00;;;;;;;7.20;5.40;;;5.50;1.00;;;;;;5065441;28;20220;-86
2023/03/08 11:49:08;;;;;;;6.95;6.25;;;4.50;1.00;;;;;;5067434;28;20189;-84
2023/03/08 11:51:48;;;;;;;3.83;3.55;;;4.50;1.00;;;;;;5050894;28;20207;-86
2023/03/08 11:54:24;;;;;;;4.68;4.15;;;4.80;1.00;;;;;;5066787;28;20258;-86
2023/03/08 11:56:54;;;;;;;13.18;6.20;;;4.90;1.00;;;;;;5069208;28;20659;-86
2023/03/08 11:59:29;;;;;;;5.82;4.93;;;4.60;1.00;;;;;;5064176;28;20261;-84
2023/03/08 12:02:13;;;;;;;6.35;5.03;;;4.50;1.00;;;;;;5065298;28;20287;-84
2023/03/08 12:04:43;;;;;;;7.50;5.20;;;4.40;1.00;;;;;;5066141;28;20219;-83
2023/03/08 12:07:18;;;;;;;5.95;5.38;;;5.00;1.00;;;;;;5061422;28;20281;-85
2023/03/08 12:09:55;;;;;;;9.65;5.10;;;4.60;99.90;;;;;;5063071;28;20252;-86
2023/03/08 12:12:27;;;;;;;5.07;4.60;;;4.70;1.00;;;;;;5062757;28;20194;-86
2023/03/08 12:14:59;;;;;;;5.47;4.97;;;4.90;1.00;;;;;;5064709;28;20228;-86
2023/03/08 12:17:30;;;;;;;8.93;5.47;;;5.10;99.90;;;;;;5064692;28;20227;-85
2023/03/08 12:19:57;;;;;;;4.03;3.70;;;5.00;1.00;;;;;;5064327;28;20287;-86
2023/03/08 12:22:33;;;;;;;9.70;5.00;;;4.80;1.00;;;;;;5065185;28;20266;-85
2023/03/08 12:25:09;;;;;;;4.53;4.10;;;4.30;65.70;;;;;;5065162;28;20267;-87
2023/03/08 12:27:43;;;;;;;5.95;5.32;;;4.70;1.00;;;;;;5064046;28;20645;-86
2023/03/08 12:30:19;;;;;;;6.65;5.30;;;4.70;1.00;;;;;;5072238;28;20188;-85
2023/03/08 12:32:48;;;;;;;8.32;4.43;;;4.70;1.00;;;;;;5073405;28;20200;-86
2023/03/08 12:35:32;;;;;;;5.22;4.75;;;4.70;64.00;;;;;;5062882;28;20294;-86
2023/03/08 12:38:01;;;;;;;5.78;4.60;;;5.20;1.00;;;;;;5063383;28;20192;-85
2023/03/08 12:40:40;;;;;;;5.35;4.85;;;5.00;1.00;;;;;;5065609;28;20208;-84
2023/03/08 12:43:11;;;;;;;5.13;4.15;;;5.10;1.00;;;;;;5066204;28;20188;-86
2023/03/08 12:45:39;;;;;;;9.88;4.72;;;5.00;1.00;;;;;;5065187;28;20191;-86
2023/03/08 12:48:26;;;;;;;4.80;4.40;;;4.80;1.00;;;;;;5065744;28;20228;-85
2023/03/08 12:50:59;;;;;;;5.28;4.88;;;4.50;1.00;;;;;;5066167;28;20190;-85
2023/03/08 12:53:32;;;;;;;5.32;4.65;;;4.40;55.90;;;;;;5065110;28;20228;-86
2023/03/08 12:56:06;;;;;;;5.78;3.97;;;4.70;1.00;;;;;;5066137;28;20198;-86
2023/03/08 12:58:38;;;;;;;6.57;5.25;;;4.70;1.00;;;;;;5066459;28;20212;-86
2023/03/08 13:01:26;;;;;;;8.45;5.93;;;4.60;1.00;;;;;;5066052;28;20257;-84
2023/03/08 13:03:54;;;;;;;7.13;5.47;;;4.50;1.00;;;;;;5066352;28;20306;-84
2023/03/08 13:06:54;;;;;;;7.88;5.40;;;4.50;1.00;;;;;;5065241;28;20777;-85